createdAt,value
2023-03-06T00:00:38.896Z,3.53
2023-03-06T00:03:06.324Z,3.53
2023-03-06T00:05:32.923Z,3.54
2023-03-06T00:07:59.825Z,3.58
2023-03-06T00:10:30.665Z,3.61
2023-03-06T00:13:02.907Z,3.56
2023-03-06T00:15:29.671Z,3.58
2023-03-06T00:17:57.730Z,3.55
2023-03-06T00:20:25.661Z,3.11
2023-03-06T00:22:52.309Z,3.32
2023-03-06T00:25:21.199Z,3.39
2023-03-06T00:27:48.589Z,3.35
2023-03-06T00:30:19.863Z,3.18
2023-03-06T00:32:46.704Z,3.16
2023-03-06T00:35:14.052Z,3.23
2023-03-06T00:37:40.914Z,3.23
2023-03-06T00:40:15.103Z,3.19
2023-03-06T00:42:41.703Z,3.03
2023-03-06T00:45:09.176Z,3.10
2023-03-06T00:47:35.800Z,3.04
2023-03-06T00:50:02.445Z,2.98
2023-03-06T00:52:28.987Z,3.00
2023-03-06T00:54:55.889Z,2.75
2023-03-06T00:57:24.862Z,2.93
2023-03-06T00:59:51.504Z,2.87
2023-03-06T01:02:20.399Z,2.85
2023-03-06T01:04:47.142Z,2.82
2023-03-06T01:07:13.758Z,2.61
2023-03-06T01:09:40.425Z,2.74
2023-03-06T01:12:09.920Z,2.70
2023-03-06T01:14:36.597Z,2.64
2023-03-06T01:17:07.954Z,2.43
2023-03-06T01:19:34.537Z,2.59
2023-03-06T01:22:01.175Z,2.55
2023-03-06T01:24:28.576Z,2.42
2023-03-06T01:26:55.190Z,2.52
2023-03-06T01:29:21.754Z,2.29
2023-03-06T01:31:48.398Z,2.45
2023-03-06T01:34:14.991Z,2.40
2023-03-06T01:36:41.593Z,2.07
2023-03-06T01:39:08.199Z,2.29
2023-03-06T01:41:34.802Z,2.10
2023-03-06T01:44:02.373Z,2.24
2023-03-06T01:46:28.922Z,2.22
2023-03-06T01:49:16.813Z,2.07
2023-03-06T01:52:11.830Z,2.18
2023-03-06T01:54:47.128Z,2.18
2023-03-06T01:57:19.176Z,2.05
2023-03-06T01:59:51.589Z,2.13
2023-03-06T02:02:18.265Z,1.97
2023-03-06T02:04:46.253Z,2.09
2023-03-06T02:07:15.642Z,2.03
2023-03-06T02:09:47.037Z,1.83
2023-03-06T02:12:20.825Z,2.06
2023-03-06T02:14:48.149Z,2.06
2023-03-06T02:17:18.279Z,2.07
2023-03-06T02:19:55.974Z,2.08
2023-03-06T02:22:25.489Z,1.87
2023-03-06T02:25:00.836Z,2.04
2023-03-06T02:27:27.937Z,1.99
2023-03-06T02:29:54.751Z,2.03
2023-03-06T02:32:21.350Z,2.01
2023-03-06T02:34:51.043Z,2.00
2023-03-06T02:37:18.163Z,1.97
2023-03-06T02:39:49.855Z,1.92
2023-03-06T02:42:22.274Z,1.82
2023-03-06T02:44:51.214Z,1.95
2023-03-06T02:47:20.656Z,1.81
2023-03-06T02:49:47.269Z,1.91
2023-03-06T02:52:13.857Z,1.92
2023-03-06T02:54:42.642Z,1.80
2023-03-06T02:57:09.287Z,1.83
2023-03-06T02:59:36.099Z,1.81
2023-03-06T03:02:02.707Z,1.86
2023-03-06T03:04:31.593Z,1.85
2023-03-06T03:06:58.163Z,1.61
2023-03-06T03:09:28.385Z,1.16
2023-03-06T03:11:54.996Z,1.77
2023-03-06T03:14:21.540Z,1.88
2023-03-06T03:16:48.212Z,1.87
2023-03-06T03:19:14.831Z,1.88
2023-03-06T03:21:41.699Z,1.84
2023-03-06T03:24:08.649Z,1.62
2023-03-06T03:26:35.157Z,1.84
2023-03-06T03:29:04.226Z,1.79
2023-03-06T03:31:31.701Z,1.62
2023-03-06T03:33:58.473Z,1.71
2023-03-06T03:36:26.109Z,1.69
2023-03-06T03:38:52.667Z,1.65
2023-03-06T03:41:19.237Z,1.69
2023-03-06T03:43:45.783Z,1.63
2023-03-06T03:46:12.432Z,1.74
2023-03-06T03:48:41.447Z,1.51
2023-03-06T03:51:13.216Z,1.54
2023-03-06T03:53:40.082Z,1.70
2023-03-06T03:56:06.908Z,1.60
2023-03-06T03:58:38.335Z,1.74
2023-03-06T04:01:08.241Z,1.72
2023-03-06T04:03:34.995Z,1.73
2023-03-06T04:06:02.103Z,1.74
2023-03-06T04:08:29.014Z,1.75
2023-03-06T04:10:56.090Z,1.75
2023-03-06T04:13:25.220Z,1.24
2023-03-06T04:15:55.820Z,1.79
2023-03-06T04:18:23.280Z,1.81
2023-03-06T04:20:50.065Z,1.83
2023-03-06T04:23:19.594Z,1.87
2023-03-06T04:25:46.750Z,1.84
2023-03-06T04:28:14.090Z,1.88
2023-03-06T04:30:43.116Z,1.89
2023-03-06T04:33:14.520Z,1.90
2023-03-06T04:35:43.372Z,1.20
2023-03-06T04:38:12.504Z,1.88
2023-03-06T04:40:39.107Z,1.86
2023-03-06T04:43:06.215Z,1.83
2023-03-06T04:45:33.706Z,1.85
2023-03-06T04:48:03.119Z,1.73
2023-03-06T04:50:32.580Z,1.94
2023-03-06T04:53:04.819Z,1.97
2023-03-06T04:55:31.846Z,1.94
2023-03-06T04:58:00.670Z,1.98
2023-03-06T05:00:30.673Z,2.01
2023-03-06T05:03:02.518Z,1.99
2023-03-06T05:05:30.007Z,1.80
2023-03-06T05:07:57.524Z,2.03
2023-03-06T05:10:24.138Z,1.97
2023-03-06T05:12:50.837Z,2.06
2023-03-06T05:15:17.911Z,2.06
2023-03-06T05:17:46.115Z,2.11
2023-03-06T05:20:16.825Z,2.04
2023-03-06T05:22:43.607Z,2.12
2023-03-06T05:25:11.248Z,2.14
2023-03-06T05:27:41.102Z,2.05
2023-03-06T05:30:14.060Z,0.76
2023-03-06T05:32:43.415Z,2.15
2023-03-06T05:35:17.148Z,2.22
2023-03-06T05:37:46.284Z,2.21
2023-03-06T05:40:14.081Z,2.25
2023-03-06T05:42:40.781Z,2.19
2023-03-06T05:45:08.383Z,2.29
2023-03-06T05:47:35.032Z,2.18
2023-03-06T05:50:01.735Z,2.32
2023-03-06T05:52:28.428Z,2.34
2023-03-06T05:54:55.345Z,2.33
2023-03-06T05:57:23.597Z,2.34
2023-03-06T05:59:50.784Z,2.33
2023-03-06T06:02:18.374Z,2.04
2023-03-06T06:04:45.794Z,2.36
2023-03-06T06:07:16.533Z,2.40
2023-03-06T06:09:48.008Z,2.34
2023-03-06T06:12:14.669Z,2.21
2023-03-06T06:14:41.380Z,2.42
2023-03-06T06:17:08.098Z,1.76
2023-03-06T06:19:34.704Z,2.46
2023-03-06T06:22:02.804Z,2.44
2023-03-06T06:24:30.342Z,2.37
2023-03-06T06:26:58.186Z,2.51
2023-03-06T06:29:26.148Z,2.53
2023-03-06T06:31:53.380Z,2.53
2023-03-06T06:34:20.555Z,2.56
2023-03-06T06:36:47.866Z,2.10
2023-03-06T06:39:19.403Z,2.56
2023-03-06T06:42:02.721Z,2.59
2023-03-06T06:44:32.537Z,2.62
2023-03-06T06:49:50.592Z,2.57
2023-03-06T06:52:18.773Z,2.70
2023-03-06T06:54:45.988Z,2.77
2023-03-06T06:57:17.716Z,2.77
2023-03-06T06:59:44.451Z,2.84
2023-03-06T07:02:13.775Z,2.71
2023-03-06T07:04:52.379Z,2.62
2023-03-06T07:07:25.446Z,2.79
2023-03-06T07:09:52.780Z,2.84
2023-03-06T07:12:19.631Z,2.99
2023-03-06T07:14:48.967Z,2.95
2023-03-06T07:17:18.414Z,3.01
2023-03-06T07:19:50.181Z,2.99
2023-03-06T07:22:19.073Z,2.45
2023-03-06T07:24:48.099Z,3.07
2023-03-06T07:27:14.690Z,3.08
2023-03-06T07:29:43.168Z,3.06
2023-03-06T07:32:11.632Z,3.18
2023-03-06T07:34:38.240Z,3.05
2023-03-06T07:37:04.986Z,3.21
2023-03-06T07:39:34.078Z,3.20
2023-03-06T07:42:01.081Z,3.38
2023-03-06T07:44:30.161Z,3.40
2023-03-06T07:46:57.145Z,3.41
2023-03-06T07:49:23.776Z,3.28
2023-03-06T07:51:50.374Z,3.52
2023-03-06T07:54:16.953Z,3.27
2023-03-06T07:56:47.167Z,3.59
2023-03-06T07:59:33.178Z,3.74
2023-03-06T08:02:03.936Z,3.83
2023-03-06T08:04:31.722Z,3.88
2023-03-06T08:07:01.903Z,4.06
2023-03-06T08:09:29.965Z,4.20
2023-03-06T08:11:59.956Z,4.37
2023-03-06T08:14:26.789Z,3.97
2023-03-06T08:16:56.340Z,4.52
2023-03-06T08:19:23.082Z,4.63
2023-03-06T08:21:49.636Z,4.84
2023-03-06T08:24:16.775Z,4.75
2023-03-06T08:26:45.722Z,4.93
2023-03-06T08:29:12.771Z,5.09
2023-03-06T08:31:46.969Z,5.16
2023-03-06T08:34:17.460Z,5.23
2023-03-06T08:36:46.494Z,5.42
2023-03-06T08:39:14.211Z,5.22
2023-03-06T08:41:42.268Z,5.24
2023-03-06T08:44:09.449Z,5.32
2023-03-06T08:46:36.347Z,5.59
2023-03-06T08:49:03.471Z,5.82
2023-03-06T08:51:30.059Z,5.98
2023-03-06T08:53:57.907Z,5.95
2023-03-06T08:56:34.466Z,5.73
2023-03-06T08:59:02.760Z,5.83
2023-03-06T09:01:32.338Z,6.16
2023-03-06T09:04:01.736Z,5.93
2023-03-06T09:06:33.525Z,5.67
2023-03-06T09:09:00.373Z,5.67
2023-03-06T09:11:27.856Z,5.50
2023-03-06T09:13:55.416Z,5.81
2023-03-06T09:16:22.102Z,5.78
2023-03-06T09:18:50.915Z,5.91
2023-03-06T09:21:17.588Z,6.03
2023-03-06T09:23:44.425Z,6.21
2023-03-06T09:26:12.337Z,6.33
2023-03-06T09:28:40.299Z,6.31
2023-03-06T09:31:12.409Z,6.33
2023-03-06T09:33:39.428Z,5.79
2023-03-06T09:36:08.148Z,6.19
2023-03-06T09:38:34.999Z,6.43
2023-03-06T09:41:22.912Z,6.60
2023-03-06T09:44:01.475Z,6.56
2023-03-06T09:46:31.272Z,6.92
2023-03-06T09:49:31.929Z,7.18
2023-03-06T09:52:10.625Z,7.09
2023-03-06T09:54:46.417Z,7.14
2023-03-06T09:57:26.487Z,7.08
2023-03-06T10:00:04.533Z,7.05
2023-03-06T10:02:44.801Z,7.39
2023-03-06T10:05:41.104Z,7.50
2023-03-06T10:08:27.162Z,7.60
2023-03-06T10:11:03.713Z,7.66
2023-03-06T10:13:35.443Z,7.73
2023-03-06T10:16:22.273Z,7.95
2023-03-06T10:18:49.318Z,8.29
2023-03-06T10:21:43.672Z,8.52
2023-03-06T10:24:47.995Z,8.64
2023-03-06T10:27:43.120Z,8.41
2023-03-06T10:30:33.786Z,8.44
2023-03-06T10:33:06.180Z,8.45
2023-03-06T10:35:45.666Z,8.34
2023-03-06T10:38:29.949Z,8.19
2023-03-06T10:41:08.060Z,8.00
2023-03-06T10:43:36.617Z,7.86
2023-03-06T10:46:06.683Z,7.70
2023-03-06T10:48:40.045Z,7.26
2023-03-06T10:51:18.818Z,7.93
2023-03-06T10:54:22.248Z,7.79
2023-03-06T10:56:48.843Z,7.80
2023-03-06T10:59:20.142Z,7.68
2023-03-06T11:01:51.522Z,7.59
2023-03-06T11:04:24.263Z,7.49
2023-03-06T11:07:18.087Z,7.47
2023-03-06T11:09:56.949Z,7.60
2023-03-06T11:12:32.341Z,7.56
2023-03-06T11:15:14.298Z,7.51
2023-03-06T11:17:53.427Z,7.62
2023-03-06T11:20:20.250Z,7.69
2023-03-06T11:22:52.210Z,7.69
2023-03-06T11:25:22.110Z,7.47
2023-03-06T11:27:57.841Z,7.84
2023-03-06T11:30:35.443Z,7.88
2023-03-06T11:33:15.332Z,8.05
2023-03-06T11:36:40.616Z,8.13
2023-03-06T11:39:36.758Z,8.44
2023-03-06T11:42:26.575Z,8.60
2023-03-06T11:45:05.080Z,8.41
2023-03-06T11:47:38.113Z,8.22
2023-03-06T11:50:07.631Z,8.24
2023-03-06T11:52:49.269Z,8.20
2023-03-06T11:55:24.052Z,8.27
2023-03-06T11:58:04.082Z,8.44
2023-03-06T12:00:54.061Z,8.84
2023-03-06T12:03:41.179Z,8.95
2023-03-06T12:06:15.712Z,8.85
2023-03-06T12:09:11.821Z,9.04
2023-03-06T12:11:50.279Z,8.93
2023-03-06T12:14:40.410Z,8.74
2023-03-06T12:17:39.004Z,8.72
2023-03-06T12:20:33.220Z,8.63
2023-03-06T12:23:16.650Z,8.36
2023-03-06T12:25:49.673Z,8.29
2023-03-06T12:28:19.380Z,8.35
2023-03-06T12:31:19.581Z,7.78
2023-03-06T12:33:56.528Z,8.16
2023-03-06T12:36:47.769Z,8.11
2023-03-06T12:39:45.269Z,8.05
2023-03-06T12:42:42.442Z,8.20
2023-03-06T12:45:33.739Z,8.42
2023-03-06T12:48:02.092Z,8.35
2023-03-06T12:50:33.005Z,8.48
2023-03-06T12:53:16.274Z,8.48
2023-03-06T12:55:46.546Z,8.55
2023-03-06T12:58:28.997Z,8.69
2023-03-06T13:01:05.883Z,8.87
2023-03-06T13:04:14.616Z,9.07
2023-03-06T13:07:02.060Z,9.04
2023-03-06T13:09:37.450Z,9.05
2023-03-06T13:12:06.218Z,9.07
2023-03-06T13:14:42.274Z,9.10
2023-03-06T13:17:24.069Z,9.07
2023-03-06T13:20:13.858Z,9.00
2023-03-06T13:22:44.358Z,8.84
2023-03-06T13:25:17.432Z,8.75
2023-03-06T13:27:53.225Z,8.70
2023-03-06T13:30:21.544Z,7.12
2023-03-06T13:32:52.821Z,8.41
2023-03-06T13:35:34.278Z,8.35
2023-03-06T13:38:01.518Z,8.23
2023-03-06T13:40:35.723Z,8.14
2023-03-06T13:43:07.917Z,8.14
2023-03-06T13:45:34.521Z,8.26
2023-03-06T13:48:37.564Z,8.33
2023-03-06T13:50:55.723Z,8.59
2023-03-06T13:53:50.079Z,8.81
2023-03-06T13:56:28.802Z,9.00
2023-03-06T13:59:25.918Z,9.17
2023-03-06T14:02:34.684Z,9.34
2023-03-06T14:05:03.884Z,9.37
2023-03-06T14:07:35.755Z,9.40
2023-03-06T14:10:15.603Z,9.41
2023-03-06T14:12:58.993Z,9.41
2023-03-06T14:15:53.889Z,9.32
2023-03-06T14:18:27.913Z,9.42
2023-03-06T14:21:07.526Z,9.40
2023-03-06T14:23:45.244Z,8.98
2023-03-06T14:26:17.594Z,9.31
2023-03-06T14:29:01.956Z,9.26
2023-03-06T14:31:32.132Z,9.05
2023-03-06T14:34:05.077Z,9.12
2023-03-06T14:36:45.391Z,9.07
2023-03-06T14:39:26.261Z,9.02
2023-03-06T14:42:08.478Z,8.98
2023-03-06T14:44:35.546Z,8.76
2023-03-06T14:47:25.011Z,8.82
2023-03-06T14:50:30.255Z,8.72
2023-03-06T14:53:16.662Z,8.66
2023-03-06T14:56:02.107Z,8.54
2023-03-06T14:58:36.855Z,8.48
2023-03-06T15:01:09.688Z,8.21
2023-03-06T15:03:51.104Z,8.20
2023-03-06T15:06:25.116Z,8.08
2023-03-06T15:09:02.599Z,7.79
2023-03-06T15:12:08.445Z,7.84
2023-03-06T15:14:43.342Z,7.53
2023-03-06T15:17:19.350Z,7.69
2023-03-06T15:19:50.885Z,7.54
2023-03-06T15:22:33.034Z,7.69
2023-03-06T15:25:22.308Z,7.77
2023-03-06T15:27:59.616Z,7.81
2023-03-06T15:30:33.113Z,7.88
2023-03-06T15:33:32.118Z,7.97
2023-03-06T15:36:03.768Z,7.90
2023-03-06T15:38:42.025Z,7.98
2023-03-06T15:41:31.848Z,7.99
2023-03-06T15:44:00.307Z,8.02
2023-03-06T15:46:27.523Z,8.01
2023-03-06T15:48:56.897Z,8.02
2023-03-06T15:51:25.826Z,8.00
2023-03-06T15:53:54.958Z,7.80
2023-03-06T15:56:28.979Z,7.94
2023-03-06T15:59:01.895Z,7.80
2023-03-06T16:01:28.674Z,7.92
2023-03-06T16:03:58.245Z,7.94
2023-03-06T16:06:25.633Z,7.86
2023-03-06T16:08:53.076Z,7.81
2023-03-06T16:11:41.884Z,7.79
2023-03-06T16:14:18.956Z,7.67
2023-03-06T16:16:45.757Z,7.65
2023-03-06T16:19:25.946Z,7.44
2023-03-06T16:21:55.103Z,7.73
2023-03-06T16:24:26.114Z,7.59
2023-03-06T16:26:54.965Z,7.51
2023-03-06T16:29:24.225Z,7.53
2023-03-06T16:31:51.212Z,7.59
2023-03-06T16:34:19.845Z,7.46
2023-03-06T16:36:48.611Z,7.37
2023-03-06T16:39:20.004Z,6.91
2023-03-06T16:41:47.185Z,7.27
2023-03-06T16:44:14.040Z,7.38
2023-03-06T16:46:45.276Z,7.26
2023-03-06T16:49:25.121Z,7.22
2023-03-06T16:51:53.137Z,7.15
2023-03-06T16:54:26.089Z,7.11
2023-03-06T16:56:52.687Z,7.09
2023-03-06T16:59:19.656Z,7.07
2023-03-06T17:01:46.360Z,7.02
2023-03-06T17:04:15.498Z,6.91
2023-03-06T17:06:44.386Z,6.93
2023-03-06T17:09:11.220Z,6.76
2023-03-06T17:11:43.090Z,6.76
2023-03-06T17:14:11.780Z,6.66
2023-03-06T17:16:40.397Z,6.53
2023-03-06T17:19:07.476Z,6.51
2023-03-06T17:21:35.440Z,6.51
2023-03-06T17:24:04.791Z,6.28
2023-03-06T17:26:31.418Z,6.43
2023-03-06T17:28:58.200Z,6.36
2023-03-06T17:31:27.096Z,6.29
2023-03-06T17:34:00.434Z,6.30
2023-03-06T17:36:28.517Z,6.25
2023-03-06T17:38:56.727Z,6.22
2023-03-06T17:41:24.683Z,5.53
2023-03-06T17:43:52.072Z,6.31
2023-03-06T17:46:23.333Z,6.21
2023-03-06T17:48:52.136Z,6.18
2023-03-06T17:51:18.708Z,6.12
2023-03-06T17:53:47.466Z,6.11
2023-03-06T17:56:17.579Z,6.04
2023-03-06T17:58:44.406Z,6.06
2023-03-06T18:01:15.802Z,6.06
2023-03-06T18:03:47.794Z,5.98
2023-03-06T18:06:15.787Z,5.97
2023-03-06T18:08:45.983Z,5.97
2023-03-06T18:11:13.668Z,5.95
2023-03-06T18:13:42.887Z,5.94
2023-03-06T18:16:12.188Z,5.72
2023-03-06T18:18:44.105Z,5.91
2023-03-06T18:21:13.434Z,5.90
2023-03-06T18:23:43.758Z,5.89
2023-03-06T18:26:19.545Z,5.86
2023-03-06T18:28:48.872Z,5.83
2023-03-06T18:31:19.904Z,5.80
2023-03-06T18:33:50.794Z,5.76
2023-03-06T18:36:24.626Z,5.72
2023-03-06T18:38:51.283Z,5.76
2023-03-06T18:41:19.822Z,5.73
2023-03-06T18:43:55.006Z,5.70
2023-03-06T18:46:25.358Z,5.66
2023-03-06T18:48:52.144Z,5.66
2023-03-06T18:51:20.186Z,5.68
2023-03-06T18:53:49.360Z,5.66
2023-03-06T18:56:19.141Z,5.63
2023-03-06T18:58:50.255Z,5.59
2023-03-06T19:01:17.791Z,5.35
2023-03-06T19:03:44.547Z,5.52
2023-03-06T19:06:16.853Z,5.55
2023-03-06T19:08:43.899Z,5.55
2023-03-06T19:11:14.377Z,5.54
2023-03-06T19:13:41.150Z,5.48
2023-03-06T19:16:08.248Z,5.08
2023-03-06T19:18:35.358Z,5.31
2023-03-06T19:21:16.263Z,5.38
2023-03-06T19:23:43.184Z,5.39
2023-03-06T19:26:10.425Z,5.54
2023-03-06T19:28:38.949Z,5.52
2023-03-06T19:31:13.048Z,5.47
2023-03-06T19:33:40.731Z,5.43
2023-03-06T19:36:09.906Z,5.42
2023-03-06T19:38:37.173Z,5.31
2023-03-06T19:41:04.404Z,5.37
2023-03-06T19:43:31.277Z,5.36
2023-03-06T19:45:58.336Z,4.92
2023-03-06T19:48:24.937Z,5.32
2023-03-06T19:50:51.568Z,5.16
2023-03-06T19:53:18.173Z,5.10
2023-03-06T19:55:44.719Z,5.12
2023-03-06T19:58:11.462Z,5.27
2023-03-06T20:00:38.235Z,5.19
2023-03-06T20:03:05.034Z,5.26
2023-03-06T20:05:31.717Z,5.23
2023-03-06T20:07:58.225Z,5.18
2023-03-06T20:10:24.811Z,5.10
2023-03-06T20:12:53.593Z,5.15
2023-03-06T20:15:22.226Z,5.23
2023-03-06T20:17:51.278Z,5.21
2023-03-06T20:20:18.115Z,5.25
2023-03-06T20:22:44.938Z,5.24
2023-03-06T20:25:11.584Z,5.22
2023-03-06T20:27:38.369Z,5.22
2023-03-06T20:30:07.817Z,5.22
2023-03-06T20:32:34.842Z,5.22
2023-03-06T20:35:01.593Z,5.10
2023-03-06T20:37:28.380Z,5.19
2023-03-06T20:39:55.050Z,5.18
2023-03-06T20:42:21.726Z,5.11
2023-03-06T20:44:50.571Z,5.20
2023-03-06T20:47:17.208Z,5.09
2023-03-06T20:49:43.820Z,5.00
2023-03-06T20:52:10.498Z,5.19
2023-03-06T20:54:37.372Z,5.18
2023-03-06T20:57:06.249Z,5.14
2023-03-06T20:59:35.152Z,5.06
2023-03-06T21:02:01.961Z,5.13
2023-03-06T21:04:28.765Z,4.99
2023-03-06T21:06:57.999Z,5.07
2023-03-06T21:09:27.069Z,5.16
2023-03-06T21:11:55.901Z,5.05
2023-03-06T21:14:22.620Z,5.16
2023-03-06T21:16:49.199Z,5.16
2023-03-06T21:19:15.848Z,5.17
2023-03-06T21:21:50.384Z,5.25
2023-03-06T21:24:21.212Z,5.17
2023-03-06T21:26:48.267Z,5.22
2023-03-06T21:29:14.992Z,5.22
2023-03-06T21:31:42.189Z,5.23
2023-03-06T21:34:10.609Z,5.13
2023-03-06T21:36:37.696Z,5.22
2023-03-06T21:39:06.335Z,5.22
2023-03-06T21:41:33.297Z,5.24
2023-03-06T21:44:02.562Z,5.20
2023-03-06T21:46:31.886Z,5.25
2023-03-06T21:48:58.676Z,5.22
2023-03-06T21:51:27.129Z,5.21
2023-03-06T21:53:57.477Z,5.23
2023-03-06T21:56:28.453Z,5.27
2023-03-06T21:58:58.297Z,5.24
2023-03-06T22:01:27.515Z,5.23
2023-03-06T22:03:54.860Z,5.27
2023-03-06T22:06:26.670Z,5.28
2023-03-06T22:08:55.620Z,5.28
2023-03-06T22:11:24.209Z,5.28
2023-03-06T22:13:53.211Z,5.29
2023-03-06T22:16:20.963Z,5.24
2023-03-06T22:18:49.651Z,5.25
2023-03-06T22:21:23.264Z,5.29
2023-03-06T22:23:57.267Z,5.10
2023-03-06T22:26:24.949Z,5.28
2023-03-06T22:28:51.565Z,4.68
2023-03-06T22:31:28.674Z,5.27
2023-03-06T22:33:57.482Z,4.82
2023-03-06T22:36:24.467Z,5.09
2023-03-06T22:38:56.154Z,5.30
2023-03-06T22:41:26.867Z,5.31
2023-03-06T22:44:01.590Z,5.31
2023-03-06T22:46:28.795Z,5.28
2023-03-06T22:49:00.119Z,5.36
2023-03-06T22:51:28.210Z,5.34
2023-03-06T22:53:54.845Z,4.99
2023-03-06T22:56:22.468Z,5.11
2023-03-06T22:58:49.227Z,5.31
2023-03-06T23:01:18.880Z,5.32
2023-03-06T23:03:48.070Z,5.31
2023-03-06T23:06:21.409Z,5.30
2023-03-06T23:08:54.579Z,5.30
2023-03-06T23:11:22.438Z,5.29
2023-03-06T23:13:55.524Z,5.16
2023-03-06T23:16:22.164Z,5.07
2023-03-06T23:18:51.219Z,5.29
2023-03-06T23:21:19.575Z,5.29
2023-03-06T23:23:53.118Z,5.29
2023-03-06T23:26:22.641Z,5.29
2023-03-06T23:28:49.599Z,5.29
2023-03-06T23:31:19.319Z,5.29
2023-03-06T23:33:45.997Z,5.23
2023-03-06T23:36:14.629Z,5.26
2023-03-06T23:38:44.412Z,4.88
2023-03-06T23:41:14.420Z,5.26
2023-03-06T23:43:41.198Z,5.23
2023-03-06T23:46:08.095Z,5.06
2023-03-06T23:48:39.001Z,5.07
2023-03-06T23:51:15.371Z,5.09
2023-03-06T23:53:42.755Z,5.02
2023-03-06T23:56:12.639Z,4.95
2023-03-06T23:58:39.354Z,4.75
